createdAt,value
2022-12-29T00:02:26.125Z,5.02
2022-12-29T00:04:54.803Z,4.99
2022-12-29T00:07:23.212Z,4.94
2022-12-29T00:09:51.584Z,5.06
2022-12-29T00:12:19.950Z,5.06
2022-12-29T00:15:07.269Z,5.13
2022-12-29T00:17:35.637Z,5.12
2022-12-29T00:20:21.464Z,5.13
2022-12-29T00:23:06.887Z,5.13
2022-12-29T00:25:52.907Z,5.12
2022-12-29T00:28:38.633Z,5.10
2022-12-29T00:31:31.512Z,5.28
2022-12-29T00:34:18.133Z,5.18
2022-12-29T00:36:47.324Z,5.19
2022-12-29T00:39:36.044Z,5.20
2022-12-29T00:42:23.536Z,5.20
2022-12-29T00:44:51.970Z,5.25
2022-12-29T00:47:21.757Z,5.17
2022-12-29T00:49:49.054Z,5.23
2022-12-29T00:52:17.425Z,5.18
2022-12-29T00:54:46.626Z,5.21
2022-12-29T00:57:15.224Z,5.22
2022-12-29T00:59:44.511Z,5.21
2022-12-29T01:02:13.461Z,5.21
2022-12-29T01:04:43.310Z,5.18
2022-12-29T01:07:12.004Z,5.17
2022-12-29T01:09:57.487Z,5.17
2022-12-29T01:12:39.611Z,5.17
2022-12-29T01:15:08.953Z,5.17
2022-12-29T01:17:37.700Z,5.18
2022-12-29T01:20:09.079Z,5.27
2022-12-29T01:22:37.572Z,5.22
2022-12-29T01:25:06.600Z,5.21
2022-12-29T01:27:35.612Z,5.24
2022-12-29T01:30:03.945Z,5.19
2022-12-29T01:32:32.254Z,5.28
2022-12-29T01:35:00.974Z,5.31
2022-12-29T01:37:30.745Z,5.37
2022-12-29T01:39:59.094Z,5.33
2022-12-29T01:42:28.358Z,5.32
2022-12-29T01:44:58.831Z,5.11
2022-12-29T01:47:38.445Z,5.46
2022-12-29T01:50:11.233Z,5.44
2022-12-29T01:52:46.347Z,5.54
2022-12-29T01:55:15.386Z,5.45
2022-12-29T01:57:46.499Z,5.40
2022-12-29T02:00:16.318Z,5.41
2022-12-29T02:02:48.907Z,5.44
2022-12-29T02:05:24.055Z,5.46
2022-12-29T02:07:54.751Z,5.44
2022-12-29T02:10:26.082Z,5.43
2022-12-29T02:12:55.166Z,5.44
2022-12-29T02:15:32.767Z,5.51
2022-12-29T02:18:11.067Z,5.52
2022-12-29T02:21:18.885Z,5.42
2022-12-29T02:24:17.641Z,5.43
2022-12-29T02:27:15.261Z,5.35
2022-12-29T02:29:59.245Z,5.33
2022-12-29T02:32:32.266Z,5.15
2022-12-29T02:35:08.807Z,5.21
2022-12-29T02:37:42.895Z,5.34
2022-12-29T02:40:25.554Z,5.32
2022-12-29T02:43:01.856Z,5.42
2022-12-29T02:45:37.167Z,4.96
2022-12-29T02:48:13.437Z,5.18
2022-12-29T02:50:46.276Z,5.25
2022-12-29T02:53:18.208Z,5.23
2022-12-29T02:55:49.763Z,5.22
2022-12-29T02:58:21.902Z,5.21
2022-12-29T03:01:04.072Z,5.28
2022-12-29T03:03:47.913Z,5.31
2022-12-29T03:06:32.902Z,5.11
2022-12-29T03:09:18.791Z,5.01
2022-12-29T03:12:10.667Z,5.30
2022-12-29T03:15:04.435Z,4.86
2022-12-29T03:17:49.499Z,5.38
2022-12-29T03:20:25.068Z,5.45
2022-12-29T03:22:58.603Z,5.44
2022-12-29T03:25:32.698Z,5.35
2022-12-29T03:28:03.871Z,5.63
2022-12-29T03:30:35.007Z,5.55
2022-12-29T03:33:06.288Z,5.63
2022-12-29T03:35:41.655Z,5.66
2022-12-29T03:38:14.805Z,5.57
2022-12-29T03:40:47.762Z,5.46
2022-12-29T03:43:17.325Z,5.74
2022-12-29T03:45:47.116Z,5.48
2022-12-29T03:48:15.587Z,5.98
2022-12-29T03:50:45.416Z,5.81
2022-12-29T03:53:13.754Z,5.86
2022-12-29T03:55:42.140Z,5.85
2022-12-29T03:58:10.549Z,5.89
2022-12-29T04:00:38.983Z,5.80
2022-12-29T04:03:07.638Z,5.78
2022-12-29T04:05:35.937Z,5.55
2022-12-29T04:08:05.735Z,5.92
2022-12-29T04:10:34.088Z,5.91
2022-12-29T04:13:02.527Z,5.94
2022-12-29T04:15:30.861Z,5.88
2022-12-29T04:17:59.327Z,5.96
2022-12-29T04:20:44.790Z,5.97
2022-12-29T04:23:14.583Z,6.03
2022-12-29T04:25:42.933Z,5.96
2022-12-29T04:28:11.259Z,5.68
2022-12-29T04:30:39.657Z,6.18
2022-12-29T04:33:08.027Z,6.17
2022-12-29T04:35:36.470Z,6.08
2022-12-29T04:38:05.290Z,6.09
2022-12-29T04:40:35.030Z,6.26
2022-12-29T04:43:03.457Z,6.21
2022-12-29T04:45:31.782Z,6.28
2022-12-29T04:48:00.165Z,6.33
2022-12-29T04:50:28.513Z,6.26
2022-12-29T04:52:57.194Z,6.30
2022-12-29T04:55:25.595Z,6.35
2022-12-29T04:57:55.506Z,6.26
2022-12-29T05:00:24.513Z,6.31
2022-12-29T05:02:53.055Z,6.47
2022-12-29T05:05:21.720Z,6.51
2022-12-29T05:07:50.023Z,6.59
2022-12-29T05:10:20.120Z,6.51
2022-12-29T05:12:48.445Z,6.58
2022-12-29T05:15:18.336Z,6.63
2022-12-29T05:17:47.267Z,6.61
2022-12-29T05:20:15.595Z,6.73
2022-12-29T05:22:44.027Z,6.73
2022-12-29T05:25:12.777Z,6.63
2022-12-29T05:27:41.162Z,6.47
2022-12-29T05:30:10.501Z,6.67
2022-12-29T05:32:40.171Z,6.69
2022-12-29T05:35:09.379Z,6.71
2022-12-29T05:37:37.783Z,6.64
2022-12-29T05:40:07.082Z,6.68
2022-12-29T05:42:36.039Z,6.73
2022-12-29T05:45:04.468Z,6.78
2022-12-29T05:47:32.871Z,6.79
2022-12-29T05:50:02.972Z,6.75
2022-12-29T05:52:31.378Z,6.98
2022-12-29T05:54:59.729Z,6.80
2022-12-29T05:57:28.108Z,6.92
2022-12-29T05:59:56.528Z,6.96
2022-12-29T06:02:24.996Z,6.55
2022-12-29T06:04:53.423Z,6.83
2022-12-29T06:07:23.608Z,6.99
2022-12-29T06:09:51.920Z,6.90
2022-12-29T06:12:20.366Z,6.97
2022-12-29T06:14:48.636Z,6.73
2022-12-29T06:17:17.040Z,6.80
2022-12-29T06:19:45.551Z,7.08
2022-12-29T06:22:14.479Z,7.03
2022-12-29T06:24:44.329Z,6.95
2022-12-29T06:27:12.731Z,6.79
2022-12-29T06:29:41.863Z,7.08
2022-12-29T06:32:10.468Z,7.05
2022-12-29T06:34:38.775Z,7.18
2022-12-29T06:37:07.207Z,7.09
2022-12-29T06:39:35.620Z,6.99
2022-12-29T06:42:05.665Z,6.88
2022-12-29T06:44:34.048Z,7.14
2022-12-29T06:47:02.636Z,7.18
2022-12-29T06:49:30.968Z,7.04
2022-12-29T06:52:01.713Z,7.10
2022-12-29T06:54:30.025Z,7.08
2022-12-29T06:56:58.351Z,6.74
2022-12-29T06:59:28.302Z,7.13
2022-12-29T07:01:56.699Z,7.14
2022-12-29T07:04:25.141Z,7.13
2022-12-29T07:06:53.521Z,7.11
2022-12-29T07:09:21.980Z,7.05
2022-12-29T07:11:50.396Z,7.12
2022-12-29T07:14:18.792Z,7.17
2022-12-29T07:16:48.635Z,7.13
2022-12-29T07:19:17.160Z,7.16
2022-12-29T07:21:45.502Z,6.93
2022-12-29T07:24:13.832Z,7.06
2022-12-29T07:26:42.893Z,7.10
2022-12-29T07:29:11.189Z,7.03
2022-12-29T07:31:39.699Z,7.07
2022-12-29T07:34:10.739Z,7.02
2022-12-29T07:36:39.110Z,7.04
2022-12-29T07:39:07.629Z,7.20
2022-12-29T07:41:36.056Z,7.46
2022-12-29T07:44:04.484Z,7.38
2022-12-29T07:46:56.003Z,7.32
2022-12-29T07:49:22.629Z,7.20
2022-12-29T07:51:50.950Z,7.19
2022-12-29T07:54:20.416Z,7.34
2022-12-29T07:56:49.734Z,7.16
2022-12-29T07:59:18.247Z,7.32
2022-12-29T08:01:46.647Z,7.07
2022-12-29T08:04:15.200Z,7.24
2022-12-29T08:06:46.558Z,7.26
2022-12-29T08:09:22.281Z,7.07
2022-12-29T08:11:51.334Z,7.42
2022-12-29T08:14:19.909Z,7.31
2022-12-29T08:16:48.909Z,7.22
2022-12-29T08:19:17.288Z,7.21
2022-12-29T08:21:47.143Z,7.41
2022-12-29T08:24:15.535Z,7.05
2022-12-29T08:26:44.082Z,7.58
2022-12-29T08:29:12.370Z,7.49
2022-12-29T08:31:40.843Z,7.60
2022-12-29T08:34:09.218Z,7.78
2022-12-29T08:36:37.590Z,7.69
2022-12-29T08:39:07.495Z,7.55
2022-12-29T08:41:35.882Z,7.68
2022-12-29T08:44:04.427Z,7.63
2022-12-29T08:46:32.726Z,7.55
2022-12-29T08:49:01.401Z,7.42
2022-12-29T08:51:29.722Z,7.45
2022-12-29T08:53:58.081Z,7.52
2022-12-29T08:56:28.155Z,7.44
2022-12-29T08:58:56.905Z,7.44
2022-12-29T09:01:25.600Z,7.58
2022-12-29T09:04:14.396Z,7.49
2022-12-29T09:06:43.660Z,7.59
2022-12-29T09:09:12.207Z,7.55
2022-12-29T09:11:42.472Z,7.67
2022-12-29T09:14:10.833Z,7.48
2022-12-29T09:16:39.918Z,7.47
2022-12-29T09:19:08.379Z,7.59
2022-12-29T09:21:36.643Z,7.41
2022-12-29T09:24:05.266Z,7.42
2022-12-29T09:26:33.557Z,7.48
2022-12-29T09:29:03.396Z,7.53
2022-12-29T09:31:31.965Z,7.60
2022-12-29T09:34:00.330Z,7.58
2022-12-29T09:36:28.612Z,7.75
2022-12-29T09:38:57.385Z,7.57
2022-12-29T09:41:32.354Z,7.79
2022-12-29T09:44:09.675Z,7.73
2022-12-29T09:46:42.392Z,7.60
2022-12-29T09:49:23.690Z,7.68
2022-12-29T09:51:55.963Z,7.85
2022-12-29T09:54:54.990Z,7.84
2022-12-29T09:57:32.027Z,7.90
2022-12-29T10:00:06.250Z,7.86
2022-12-29T10:02:41.357Z,7.88
2022-12-29T10:05:23.013Z,7.89
2022-12-29T10:08:01.125Z,7.89
2022-12-29T10:10:38.511Z,7.94
2022-12-29T10:13:23.019Z,7.90
2022-12-29T10:16:04.117Z,7.75
2022-12-29T10:18:47.625Z,8.01
2022-12-29T10:21:25.110Z,8.06
2022-12-29T10:23:55.498Z,7.99
2022-12-29T10:26:29.147Z,7.97
2022-12-29T10:29:01.593Z,8.05
2022-12-29T10:31:38.184Z,7.91
2022-12-29T10:34:21.630Z,7.97
2022-12-29T10:36:51.580Z,7.99
2022-12-29T10:39:25.752Z,8.09
2022-12-29T10:41:59.775Z,8.21
2022-12-29T10:44:33.141Z,8.08
2022-12-29T10:47:08.114Z,8.20
2022-12-29T10:49:42.577Z,8.11
2022-12-29T10:52:11.950Z,7.72
2022-12-29T10:54:47.667Z,8.26
2022-12-29T10:57:24.693Z,8.32
2022-12-29T10:59:53.388Z,8.00
2022-12-29T11:02:44.610Z,8.23
2022-12-29T11:05:22.299Z,6.57
2022-12-29T11:07:52.773Z,8.04
2022-12-29T11:10:32.845Z,7.41
2022-12-29T11:13:03.935Z,8.29
2022-12-29T11:15:41.741Z,8.34
2022-12-29T11:18:23.054Z,8.13
2022-12-29T11:20:53.664Z,8.33
2022-12-29T11:23:31.119Z,8.29
2022-12-29T11:26:15.916Z,8.35
2022-12-29T11:28:46.611Z,8.38
2022-12-29T11:31:20.522Z,8.35
2022-12-29T11:33:51.238Z,8.20
2022-12-29T11:36:23.945Z,8.21
2022-12-29T11:38:54.802Z,8.18
2022-12-29T11:41:26.505Z,8.27
2022-12-29T11:44:00.008Z,8.28
2022-12-29T11:46:32.224Z,8.31
2022-12-29T11:49:04.371Z,7.65
2022-12-29T11:51:41.746Z,7.46
2022-12-29T11:54:19.934Z,8.09
2022-12-29T11:56:49.282Z,8.14
2022-12-29T11:59:39.512Z,8.18
2022-12-29T12:02:43.731Z,7.93
2022-12-29T12:05:33.411Z,7.84
2022-12-29T12:08:08.161Z,7.41
2022-12-29T12:10:43.923Z,7.54
2022-12-29T12:13:23.560Z,7.42
2022-12-29T12:15:57.549Z,7.69
2022-12-29T12:18:34.753Z,7.75
2022-12-29T12:21:12.627Z,7.53
2022-12-29T12:23:55.785Z,7.38
2022-12-29T12:26:32.570Z,7.37
2022-12-29T12:29:07.732Z,7.34
2022-12-29T12:31:48.376Z,7.36
2022-12-29T12:34:22.905Z,7.31
2022-12-29T12:37:14.393Z,7.41
2022-12-29T12:39:52.011Z,7.34
2022-12-29T12:42:35.400Z,7.22
2022-12-29T12:45:24.670Z,7.26
2022-12-29T12:48:08.830Z,7.34
2022-12-29T12:50:53.746Z,7.02
2022-12-29T12:53:59.504Z,7.36
2022-12-29T12:56:45.653Z,7.27
2022-12-29T12:59:23.717Z,7.26
2022-12-29T13:02:03.573Z,7.10
2022-12-29T13:04:51.752Z,7.22
2022-12-29T13:07:30.486Z,7.29
2022-12-29T13:10:16.050Z,7.00
2022-12-29T13:12:54.380Z,7.34
2022-12-29T13:15:35.450Z,7.18
2022-12-29T13:18:16.201Z,7.09
2022-12-29T13:20:49.743Z,7.32
2022-12-29T13:23:27.162Z,7.23
2022-12-29T13:26:08.692Z,7.01
2022-12-29T13:28:43.946Z,7.08
2022-12-29T13:31:19.153Z,7.09
2022-12-29T13:33:58.367Z,7.11
2022-12-29T13:36:31.114Z,7.01
2022-12-29T13:39:06.723Z,6.94
2022-12-29T13:41:41.930Z,7.14
2022-12-29T13:44:16.711Z,7.03
2022-12-29T13:46:47.979Z,6.83
2022-12-29T13:49:20.707Z,7.03
2022-12-29T13:51:52.956Z,6.56
2022-12-29T13:54:33.194Z,6.97
2022-12-29T13:57:10.611Z,6.89
2022-12-29T13:59:48.947Z,7.02
2022-12-29T14:02:28.991Z,6.57
2022-12-29T14:05:03.163Z,6.92
2022-12-29T14:07:38.715Z,6.74
2022-12-29T14:10:09.124Z,7.04
2022-12-29T14:12:42.267Z,6.73
2022-12-29T14:15:23.644Z,6.77
2022-12-29T14:18:13.336Z,6.75
2022-12-29T14:20:53.084Z,6.64
2022-12-29T14:23:31.336Z,6.75
2022-12-29T14:26:12.762Z,6.74
2022-12-29T14:28:44.255Z,6.68
2022-12-29T14:31:44.758Z,6.94
2022-12-29T14:34:32.719Z,6.74
2022-12-29T14:37:02.346Z,6.78
2022-12-29T14:39:37.083Z,6.80
2022-12-29T14:42:08.817Z,6.80
2022-12-29T14:44:49.405Z,6.42
2022-12-29T14:47:22.610Z,6.66
2022-12-29T14:49:51.395Z,6.79
2022-12-29T14:52:23.243Z,6.73
2022-12-29T14:54:56.333Z,6.81
2022-12-29T14:57:30.255Z,6.58
2022-12-29T15:00:06.844Z,6.61
2022-12-29T15:02:40.807Z,6.61
2022-12-29T15:05:27.004Z,6.68
2022-12-29T15:07:57.769Z,6.66
2022-12-29T15:10:27.868Z,6.63
2022-12-29T15:12:57.409Z,6.65
2022-12-29T15:15:29.574Z,6.78
2022-12-29T15:17:58.366Z,6.58
2022-12-29T15:20:29.744Z,6.60
2022-12-29T15:23:02.235Z,6.72
2022-12-29T15:25:30.762Z,6.67
2022-12-29T15:28:03.468Z,6.68
2022-12-29T15:30:33.594Z,6.45
2022-12-29T15:33:03.738Z,6.57
2022-12-29T15:35:35.630Z,6.49
2022-12-29T15:38:17.118Z,6.49
2022-12-29T15:40:47.355Z,6.73
2022-12-29T15:43:47.226Z,6.66
2022-12-29T15:46:18.008Z,6.65
2022-12-29T15:48:46.564Z,6.67
2022-12-29T15:51:22.171Z,6.56
2022-12-29T15:53:52.638Z,6.38
2022-12-29T15:56:21.417Z,6.78
2022-12-29T15:58:51.576Z,6.67
2022-12-29T16:01:26.152Z,6.63
2022-12-29T16:03:55.345Z,6.50
2022-12-29T16:06:33.150Z,6.68
2022-12-29T16:09:04.770Z,6.74
2022-12-29T16:11:37.355Z,6.59
2022-12-29T16:14:10.727Z,6.69
2022-12-29T16:16:43.379Z,6.69
2022-12-29T16:19:30.240Z,6.69
2022-12-29T16:22:01.173Z,6.57
2022-12-29T16:24:34.112Z,6.46
2022-12-29T16:27:11.155Z,6.52
2022-12-29T16:29:39.876Z,6.51
2022-12-29T16:32:27.831Z,6.33
2022-12-29T16:35:12.014Z,6.54
2022-12-29T16:37:40.968Z,6.55
2022-12-29T16:40:32.548Z,6.36
2022-12-29T16:43:02.842Z,6.53
2022-12-29T16:46:21.084Z,6.47
2022-12-29T16:48:54.778Z,6.39
2022-12-29T16:51:31.092Z,6.48
2022-12-29T16:54:00.985Z,6.50
2022-12-29T16:56:32.553Z,6.49
2022-12-29T16:59:05.873Z,6.49
2022-12-29T17:01:37.386Z,6.40
2022-12-29T17:04:12.501Z,6.47
2022-12-29T17:06:41.415Z,6.44
2022-12-29T17:09:20.616Z,6.33
2022-12-29T17:12:02.520Z,6.66
2022-12-29T17:14:41.621Z,6.58
2022-12-29T17:17:17.371Z,6.48
2022-12-29T17:19:51.319Z,6.34
2022-12-29T17:22:22.370Z,6.46
2022-12-29T17:24:50.650Z,6.51
2022-12-29T17:27:33.184Z,6.52
2022-12-29T17:30:04.726Z,6.50
2022-12-29T17:32:34.625Z,6.55
2022-12-29T17:35:04.717Z,6.72
2022-12-29T17:37:38.958Z,6.66
2022-12-29T17:40:09.779Z,6.60
2022-12-29T17:42:43.728Z,6.62
2022-12-29T17:45:17.099Z,6.63
2022-12-29T17:47:46.027Z,6.67
2022-12-29T17:50:18.133Z,6.65
2022-12-29T17:52:50.228Z,6.84
2022-12-29T17:55:20.994Z,6.73
2022-12-29T17:57:49.708Z,6.80
2022-12-29T18:00:20.258Z,6.66
2022-12-29T18:02:49.939Z,6.59
2022-12-29T18:05:22.718Z,6.66
2022-12-29T18:07:52.577Z,6.71
2022-12-29T18:10:22.890Z,5.99
2022-12-29T18:12:53.362Z,6.58
2022-12-29T18:15:23.784Z,6.57
2022-12-29T18:17:56.863Z,6.62
2022-12-29T18:20:26.838Z,6.40
2022-12-29T18:22:55.297Z,6.50
2022-12-29T18:25:26.468Z,6.54
2022-12-29T18:27:54.990Z,6.48
2022-12-29T18:30:23.400Z,6.43
2022-12-29T18:32:52.123Z,6.48
2022-12-29T18:35:28.848Z,6.50
2022-12-29T18:37:57.160Z,5.83
2022-12-29T18:40:25.574Z,6.71
2022-12-29T18:42:53.857Z,6.53
2022-12-29T18:45:24.927Z,6.52
2022-12-29T18:47:53.578Z,6.67
2022-12-29T18:50:21.897Z,6.60
2022-12-29T18:52:51.778Z,6.45
2022-12-29T18:55:22.011Z,6.53
2022-12-29T18:57:50.370Z,6.66
2022-12-29T19:00:21.605Z,6.55
2022-12-29T19:02:50.761Z,6.46
2022-12-29T19:05:23.126Z,6.41
2022-12-29T19:07:53.696Z,6.52
2022-12-29T19:10:23.350Z,6.51
2022-12-29T19:12:52.055Z,6.49
2022-12-29T19:15:25.352Z,6.17
2022-12-29T19:18:16.515Z,5.93
2022-12-29T19:20:45.036Z,6.24
2022-12-29T19:23:16.479Z,6.32
2022-12-29T19:25:45.853Z,6.30
2022-12-29T19:28:19.799Z,6.29
2022-12-29T19:30:52.281Z,5.94
2022-12-29T19:33:22.517Z,6.20
2022-12-29T19:35:53.056Z,6.14
2022-12-29T19:38:24.469Z,6.27
2022-12-29T19:40:54.280Z,6.17
2022-12-29T19:43:23.850Z,6.27
2022-12-29T19:45:54.404Z,6.00
2022-12-29T19:48:24.298Z,6.05
2022-12-29T19:50:53.851Z,5.94
2022-12-29T19:53:25.377Z,6.09
2022-12-29T19:55:54.926Z,6.03
2022-12-29T19:58:24.860Z,6.00
2022-12-29T20:00:54.470Z,5.93
2022-12-29T20:03:25.244Z,5.90
2022-12-29T20:05:55.379Z,5.93
2022-12-29T20:08:28.061Z,5.99
2022-12-29T20:11:01.372Z,5.99
2022-12-29T20:13:29.939Z,5.99
2022-12-29T20:16:02.588Z,6.05
2022-12-29T20:18:32.018Z,5.93
2022-12-29T20:21:04.456Z,5.88
2022-12-29T20:23:35.251Z,5.61
2022-12-29T20:26:03.700Z,5.93
2022-12-29T20:28:32.423Z,5.99
2022-12-29T20:31:04.224Z,5.95
2022-12-29T20:33:34.866Z,5.93
2022-12-29T20:36:12.969Z,5.90
2022-12-29T20:38:44.619Z,5.95
2022-12-29T20:41:14.145Z,5.90
2022-12-29T20:43:44.486Z,5.64
2022-12-29T20:46:20.260Z,5.94
2022-12-29T20:48:50.793Z,5.86
2022-12-29T20:51:21.743Z,5.81
2022-12-29T20:53:53.063Z,5.86
2022-12-29T20:56:24.360Z,5.83
2022-12-29T20:59:26.306Z,5.94
2022-12-29T21:01:42.333Z,5.86
2022-12-29T21:04:12.216Z,5.83
2022-12-29T21:06:42.312Z,5.66
2022-12-29T21:09:14.025Z,5.76
2022-12-29T21:11:43.101Z,5.83
2022-12-29T21:14:11.589Z,5.83
2022-12-29T21:16:40.600Z,6.07
2022-12-29T21:19:09.760Z,6.01
2022-12-29T21:21:38.840Z,5.51
2022-12-29T21:24:10.870Z,5.92
2022-12-29T21:26:40.758Z,5.82
2022-12-29T21:29:09.115Z,5.76
2022-12-29T21:31:38.691Z,5.73
2022-12-29T21:34:08.403Z,5.85
2022-12-29T21:36:38.452Z,5.71
2022-12-29T21:39:08.289Z,5.80
2022-12-29T21:41:38.053Z,5.76
2022-12-29T21:44:26.450Z,5.75
2022-12-29T21:46:56.706Z,5.57
2022-12-29T21:49:28.118Z,5.69
2022-12-29T21:51:58.763Z,5.64
2022-12-29T21:54:46.726Z,5.75
2022-12-29T21:57:38.922Z,5.73
2022-12-29T22:00:29.098Z,5.65
2022-12-29T22:03:22.440Z,5.50
2022-12-29T22:06:11.613Z,5.68
2022-12-29T22:08:58.762Z,5.61
2022-12-29T22:11:45.670Z,5.67
2022-12-29T22:14:15.545Z,5.76
2022-12-29T22:16:47.671Z,5.69
2022-12-29T22:19:17.319Z,5.73
2022-12-29T22:21:47.347Z,5.69
2022-12-29T22:24:16.951Z,5.73
2022-12-29T22:26:48.069Z,5.64
2022-12-29T22:29:17.796Z,5.61
2022-12-29T22:31:50.768Z,5.65
2022-12-29T22:34:19.134Z,5.57
2022-12-29T22:36:47.486Z,5.68
2022-12-29T22:39:16.377Z,5.62
2022-12-29T22:41:45.230Z,5.61
2022-12-29T22:44:13.565Z,5.63
2022-12-29T22:46:42.065Z,5.95
2022-12-29T22:49:11.900Z,5.58
2022-12-29T22:51:40.235Z,5.69
2022-12-29T22:54:08.541Z,5.44
2022-12-29T22:56:42.159Z,5.73
2022-12-29T22:59:11.563Z,5.66
2022-12-29T23:01:40.484Z,5.71
2022-12-29T23:04:47.211Z,5.57
2022-12-29T23:06:59.106Z,5.67
2022-12-29T23:09:27.483Z,5.75
2022-12-29T23:11:55.786Z,5.56
2022-12-29T23:14:24.633Z,5.66
2022-12-29T23:16:52.888Z,5.47
2022-12-29T23:19:21.308Z,5.44
2022-12-29T23:21:49.715Z,5.41
2022-12-29T23:24:19.502Z,5.47
2022-12-29T23:26:48.787Z,5.23
2022-12-29T23:29:20.001Z,5.51
2022-12-29T23:31:49.372Z,5.51
2022-12-29T23:34:18.381Z,5.60
2022-12-29T23:36:47.059Z,5.58
2022-12-29T23:39:21.027Z,5.63
2022-12-29T23:41:49.309Z,5.48
2022-12-29T23:44:17.698Z,5.47
2022-12-29T23:46:46.111Z,5.46
2022-12-29T23:49:14.539Z,5.42
2022-12-29T23:51:43.165Z,5.43
2022-12-29T23:54:11.560Z,5.48
2022-12-29T23:56:41.262Z,5.40
2022-12-29T23:59:09.638Z,5.47
